Oasis of the Seas — C6XS7 — position and weather

sailwx.info

Track history (hours):
 
Tides and Currents Weather Stations Pressure Air Temp Water Temp Dewpoint Dewpoint Depression Visibility Wind Speed Wind Dir Waves Ship Positions

Oasis of the Seas

Last reported at 2017-Feb-24 02:32 UTC. Time now 2017-Feb-24 08:21 UTC.
Position N 18°50' W 064°16'.

Length 360 m; draft 9.3 m.

Type: Passenger vessel. MMSI: 311020600.

Date/timePositionNaut miles runAvg speedWind from/ knotsBaromVisibWave heightAir tempDewpointWater temp
2017-Feb-24 02:32N 18°50' W 064°16'85 6.1
2017-Feb-23 12:32N 18°00' W 063°03'1716.8
2017-Feb-23 11:32N 18°00' W 063°21'2018.8
2017-Feb-23 10:28N 18°00' W 063°42'6419.0
2017-Feb-23 07:05N 18°08' W 064°49'7616.9
2017-Feb-23 02:34N 18°27' W 066°07'0 0.4
2017-Feb-23 01:31N 18°28' W 066°07'0 0.0
2017-Feb-23 00:31N 18°28' W 066°07'0 0.0
2017-Feb-22 23:28N 18°28' W 066°07'0 0.0
2017-Feb-22 22:31N 18°28' W 066°07'0 0.0
2017-Feb-22 21:28N 18°28' W 066°07'0 0.0
2017-Feb-22 20:31N 18°28' W 066°07'0 0.0
2017-Feb-22 19:25N 18°28' W 066°07'0 0.0
2017-Feb-22 18:31N 18°28' W 066°07'1 0.6
2017-Feb-22 17:33N 18°28' W 066°07'  
2017-Feb-19 05:33N 26°59' W 079°46'3424.0
2017-Feb-19 04:09N 26°25' W 079°47'1524.7
2017-Feb-19 03:33N 26°11' W 079°48'2424.1
2017-Feb-19 02:33N 25°47' W 079°52'2423.3
2017-Feb-19 01:33N 25°23' W 079°56'3824.7
2017-Feb-19 00:00N 24°48' W 080°12'45222.8 120 / 151016.010.8 24.8 28.6
2017-Feb-18 04:12N 20°35' W 086°58'6 9.0
2017-Feb-18 03:32N 20°29' W 086°59'0 0.0
2017-Feb-18 02:32N 20°29' W 086°59'0 0.0
2017-Feb-18 01:32N 20°29' W 086°59'0 0.0
2017-Feb-18 00:32N 20°29' W 086°59'0 0.0
2017-Feb-17 23:32N 20°29' W 086°59'0 0.0
2017-Feb-17 22:32N 20°29' W 086°59'0 0.0
2017-Feb-17 21:32N 20°29' W 086°59'0 0.0
2017-Feb-17 20:32N 20°29' W 086°59'0 0.0
2017-Feb-17 19:32N 20°29' W 086°59'0 0.0
2017-Feb-17 18:32N 20°29' W 086°59'0 0.0
2017-Feb-17 17:32N 20°29' W 086°59'0 0.0
2017-Feb-17 16:32N 20°29' W 086°59'0 0.0
2017-Feb-17 15:32N 20°29' W 086°59'0 0.0
2017-Feb-17 14:32N 20°29' W 086°59'0 0.0
2017-Feb-17 13:32N 20°29' W 086°59'0 0.0
2017-Feb-17 12:32N 20°29' W 086°59'0 0.3
2017-Feb-17 11:34N 20°29' W 086°59'26214.9
2017-Feb-16 18:00N 19°42' W 082°24'   190 / 81017.010.8 27.1 29.4
Track history (hours):
 
Tides and Currents Weather Stations Pressure Air Temp Water Temp Dewpoint Dewpoint Depression Visibility Wind Speed Wind Dir Waves Ship Positions

Oasis of the Seas

Last reported at 2017-Feb-24 02:32 UTC. Time now 2017-Feb-24 08:21 UTC.
Position N 18°50' W 064°16'.

Length 360 m; draft 9.3 m.

Type: Passenger vessel. MMSI: 311020600.

Date/timePositionNaut miles runAvg speedWind from/ knotsBaromVisibWave heightAir tempDewpointWater temp
2017-Feb-24 02:32N 18°50' W 064°16'85 6.1
2017-Feb-23 12:32N 18°00' W 063°03'1716.8
2017-Feb-23 11:32N 18°00' W 063°21'2018.8
2017-Feb-23 10:28N 18°00' W 063°42'6419.0
2017-Feb-23 07:05N 18°08' W 064°49'7616.9
2017-Feb-23 02:34N 18°27' W 066°07'0 0.4
2017-Feb-23 01:31N 18°28' W 066°07'0 0.0
2017-Feb-23 00:31N 18°28' W 066°07'0 0.0
2017-Feb-22 23:28N 18°28' W 066°07'0 0.0
2017-Feb-22 22:31N 18°28' W 066°07'0 0.0
2017-Feb-22 21:28N 18°28' W 066°07'0 0.0
2017-Feb-22 20:31N 18°28' W 066°07'0 0.0
2017-Feb-22 19:25N 18°28' W 066°07'0 0.0
2017-Feb-22 18:31N 18°28' W 066°07'1 0.6
2017-Feb-22 17:33N 18°28' W 066°07'  
2017-Feb-19 05:33N 26°59' W 079°46'3424.0
2017-Feb-19 04:09N 26°25' W 079°47'1524.7
2017-Feb-19 03:33N 26°11' W 079°48'2424.1
2017-Feb-19 02:33N 25°47' W 079°52'2423.3
2017-Feb-19 01:33N 25°23' W 079°56'3824.7
2017-Feb-19 00:00N 24°48' W 080°12'45222.8 120 / 151016.010.8 24.8 28.6
2017-Feb-18 04:12N 20°35' W 086°58'6 9.0
2017-Feb-18 03:32N 20°29' W 086°59'0 0.0
2017-Feb-18 02:32N 20°29' W 086°59'0 0.0
2017-Feb-18 01:32N 20°29' W 086°59'0 0.0
2017-Feb-18 00:32N 20°29' W 086°59'0 0.0
2017-Feb-17 23:32N 20°29' W 086°59'0 0.0
2017-Feb-17 22:32N 20°29' W 086°59'0 0.0
2017-Feb-17 21:32N 20°29' W 086°59'0 0.0
2017-Feb-17 20:32N 20°29' W 086°59'0 0.0
2017-Feb-17 19:32N 20°29' W 086°59'0 0.0
2017-Feb-17 18:32N 20°29' W 086°59'0 0.0
2017-Feb-17 17:32N 20°29' W 086°59'0 0.0
2017-Feb-17 16:32N 20°29' W 086°59'0 0.0
2017-Feb-17 15:32N 20°29' W 086°59'0 0.0
2017-Feb-17 14:32N 20°29' W 086°59'0 0.0
2017-Feb-17 13:32N 20°29' W 086°59'0 0.0
2017-Feb-17 12:32N 20°29' W 086°59'0 0.3
2017-Feb-17 11:34N 20°29' W 086°59'26214.9
2017-Feb-16 18:00N 19°42' W 082°24'   190 / 81017.010.8 27.1 29.4

Dump ship's entire track history